Reynosa, TAM, Mexico
Current Conditions -  °F | °C
As of 9:40 AM on Friday 24 Oct 2014 (Local Time) from MMRX Reporting Station
Clear Clear  
Wind Chill: 70°   Ceiling: Unl
Heat Index: 70°   Visibility: 6mi
Dew Point: 63°   Wind: 5mph
Humidity: 78%   Direction: 20°NNE
Pressure: 30.15"   Gusts: NA
Location:  26.08°N, 98.28°W
Report Text: MMRX 241440Z 02004KT 6SM SKC 21/17 A3015 RMK SLP205 52021 908 HZY FU
Loading
Personal Weather Stations






























Interactive Weather Map
Tropical Storm Tracking
New forecast layout! Learn more

10-Day Weather Forecast

Advertisements
Track Severe Weather on mobile